createdAt,value
2022-08-29T00:00:35.283Z,2.5
2022-08-29T00:06:28.729Z,2.3
2022-08-29T00:12:19.637Z,2.6
2022-08-29T00:18:12.046Z,2.4
2022-08-29T00:24:04.513Z,2.6
2022-08-29T00:29:53.071Z,2.5
2022-08-29T00:35:49.202Z,2.9
2022-08-29T00:41:42.729Z,2.4
2022-08-29T00:47:34.253Z,2.6
2022-08-29T00:53:25.597Z,2.6
2022-08-29T00:59:18.752Z,2.7
2022-08-29T01:05:10.048Z,2.4
2022-08-29T01:11:01.831Z,2.7
2022-08-29T01:16:54.106Z,2.5
2022-08-29T01:22:47.004Z,2.6
2022-08-29T01:28:39.427Z,2.8
2022-08-29T01:34:30.114Z,2.6
2022-08-29T01:40:21.580Z,2.8
2022-08-29T01:46:14.490Z,2.8
2022-08-29T01:52:06.622Z,3
2022-08-29T01:57:58.843Z,2.9
2022-08-29T02:03:49.070Z,2.6
2022-08-29T02:09:48.660Z,2.4
2022-08-29T02:15:38.942Z,2.7
2022-08-29T02:21:30.121Z,2.7
2022-08-29T02:27:21.411Z,3.1
2022-08-29T02:33:12.938Z,3
2022-08-29T02:39:03.782Z,3
2022-08-29T02:44:56.387Z,2.8
2022-08-29T02:50:48.043Z,2.7
2022-08-29T02:56:38.630Z,2.8
2022-08-29T03:02:29.900Z,2.5
2022-08-29T03:08:21.043Z,2.9
2022-08-29T03:14:11.096Z,3.5
2022-08-29T03:20:02.221Z,3.3
2022-08-29T03:25:53.101Z,3.4
2022-08-29T03:31:42.854Z,3
2022-08-29T03:37:35.193Z,3
2022-08-29T03:43:26.746Z,3.2
2022-08-29T03:49:17.915Z,3.1
2022-08-29T03:55:08.515Z,3.2
2022-08-29T04:00:58.965Z,3.3
2022-08-29T04:06:49.599Z,3.6
2022-08-29T04:12:40.578Z,3.5
2022-08-29T04:18:32.276Z,3.6
2022-08-29T04:24:23.006Z,3.4
2022-08-29T04:30:15.674Z,3.3
2022-08-29T04:36:10.909Z,3
2022-08-29T04:42:04.248Z,3.7
2022-08-29T04:48:00.728Z,3.1
2022-08-29T04:53:54.531Z,3.4
2022-08-29T04:59:46.862Z,3.9
2022-08-29T05:05:37.916Z,3.2
2022-08-29T05:11:29.576Z,3.2
2022-08-29T05:17:20.895Z,3.1
2022-08-29T05:23:15.917Z,3.7
2022-08-29T05:29:11.372Z,3.5
2022-08-29T05:35:02.143Z,3.5
2022-08-29T05:40:54.883Z,3.8
2022-08-29T05:46:46.715Z,4.3
2022-08-29T05:52:41.536Z,3.9
2022-08-29T05:58:32.295Z,4
2022-08-29T06:04:22.017Z,4.1
2022-08-29T06:10:14.351Z,4.4
2022-08-29T06:16:07.236Z,5.3
2022-08-29T06:21:58.754Z,4.6
2022-08-29T06:27:50.629Z,5.1
2022-08-29T06:33:40.384Z,4.6
2022-08-29T06:39:29.347Z,4.8
2022-08-29T06:45:17.887Z,4.5
2022-08-29T06:51:08.418Z,5.2
2022-08-29T06:56:57.559Z,4.7
2022-08-29T07:02:55.081Z,4.6
2022-08-29T07:09:00.515Z,4.8
2022-08-29T07:14:48.405Z,4.8
2022-08-29T07:20:42.112Z,4.6
2022-08-29T07:26:33.830Z,5.2
2022-08-29T07:32:29.776Z,4.6
2022-08-29T07:38:18.779Z,4.3
2022-08-29T07:44:07.456Z,4.2
2022-08-29T07:49:57.823Z,4.5
2022-08-29T07:55:48.303Z,4
2022-08-29T08:01:38.568Z,4.9
2022-08-29T08:07:37.940Z,4.4
2022-08-29T08:13:29.072Z,4.5
2022-08-29T08:19:19.387Z,4.3
2022-08-29T08:25:09.186Z,4.3
2022-08-29T08:30:59.393Z,4.3
2022-08-29T08:36:53.522Z,4.3
2022-08-29T08:42:45.605Z,4.1
2022-08-29T08:48:38.402Z,4.1
2022-08-29T08:54:28.295Z,3.7
2022-08-29T09:00:20.194Z,3.9
2022-08-29T09:06:11.758Z,3.4
2022-08-29T09:12:01.451Z,3.3
2022-08-29T09:17:52.204Z,3.5
2022-08-29T09:23:46.023Z,3.2
2022-08-29T09:29:36.609Z,3.4
2022-08-29T09:35:26.179Z,3.4
2022-08-29T09:41:16.619Z,3
2022-08-29T09:47:07.073Z,3.2
2022-08-29T09:52:57.421Z,3.1
2022-08-29T09:58:47.441Z,3.2
2022-08-29T10:04:39.083Z,3.1
2022-08-29T10:10:31.211Z,3.1
2022-08-29T10:16:23.962Z,2.9
2022-08-29T10:22:15.999Z,3
2022-08-29T10:28:07.266Z,3.1
2022-08-29T10:33:59.629Z,2.9
2022-08-29T10:39:56.180Z,2.4
2022-08-29T10:45:49.274Z,2.6
2022-08-29T10:51:40.102Z,2.6
2022-08-29T10:57:31.062Z,2.7
2022-08-29T11:03:23.221Z,2.6
2022-08-29T11:09:15.971Z,3
2022-08-29T11:15:07.112Z,2.9
2022-08-29T11:20:59.878Z,3
2022-08-29T11:26:52.719Z,3.1
2022-08-29T11:32:44.014Z,2.9
2022-08-29T11:38:35.164Z,2.8
2022-08-29T11:44:28.870Z,3
2022-08-29T11:50:19.649Z,2.6
2022-08-29T11:56:11.432Z,2.6
2022-08-29T12:02:05.088Z,2.6
2022-08-29T12:07:55.632Z,2.6
2022-08-29T12:13:48.284Z,2.7
2022-08-29T12:19:40.766Z,2.5
2022-08-29T12:25:31.121Z,2.7
2022-08-29T12:31:23.401Z,2.7
2022-08-29T12:37:15.422Z,2.6
2022-08-29T12:43:08.672Z,2.6
2022-08-29T12:49:04.043Z,2.7
2022-08-29T12:55:00.855Z,2.5
2022-08-29T13:00:51.720Z,2.9
2022-08-29T13:06:42.799Z,2.8
2022-08-29T13:12:34.368Z,2.7
2022-08-29T13:18:24.472Z,2.8
2022-08-29T13:24:15.562Z,2.9
2022-08-29T13:30:06.801Z,2.6
2022-08-29T13:36:00.327Z,2.4
2022-08-29T13:41:50.179Z,2.2
2022-08-29T13:47:40.689Z,2.6
2022-08-29T13:53:32.035Z,2.6
2022-08-29T13:59:23.163Z,2.6
2022-08-29T14:05:14.644Z,2.6
2022-08-29T14:11:12.963Z,2.7
2022-08-29T14:17:03.071Z,3.3
2022-08-29T14:22:54.528Z,2.5
2022-08-29T14:28:52.556Z,2.4
2022-08-29T14:34:54.526Z,2.6
2022-08-29T14:40:49.440Z,2.9
2022-08-29T14:46:41.074Z,2.7
2022-08-29T14:52:35.591Z,7.3
2022-08-29T14:58:26.190Z,2.9
2022-08-29T15:04:35.203Z,2.5
2022-08-29T15:10:26.873Z,2.7
2022-08-29T15:16:19.246Z,2.3
2022-08-29T15:22:10.843Z,2.3
2022-08-29T15:28:03.119Z,2.2
2022-08-29T15:33:56.734Z,2.5
2022-08-29T15:39:48.556Z,2.5
2022-08-29T15:45:46.818Z,2.6
2022-08-29T15:51:38.430Z,2.8
2022-08-29T15:57:30.020Z,3.6
2022-08-29T16:03:21.251Z,2.8
2022-08-29T16:09:21.762Z,2.6
2022-08-29T16:15:15.945Z,2.5
2022-08-29T16:21:09.425Z,2.2
2022-08-29T16:27:00.451Z,2.5
2022-08-29T16:32:51.443Z,2.8
2022-08-29T16:38:42.370Z,2.4
2022-08-29T16:44:33.636Z,2.5
2022-08-29T16:50:24.835Z,2.3
2022-08-29T16:56:16.920Z,2.8
2022-08-29T17:02:08.407Z,2.7
2022-08-29T17:07:59.876Z,2.4
2022-08-29T17:13:51.452Z,2.4
2022-08-29T17:19:43.369Z,2.6
2022-08-29T17:25:34.264Z,3.4
2022-08-29T17:31:26.012Z,2.8
2022-08-29T17:37:18.146Z,2.7
2022-08-29T17:43:08.698Z,3.2
2022-08-29T17:49:03.166Z,3
2022-08-29T17:54:56.521Z,3.6
2022-08-29T18:00:48.249Z,3.2
2022-08-29T18:06:39.405Z,3
2022-08-29T18:12:32.226Z,3.4
2022-08-29T18:18:23.525Z,3.6
2022-08-29T18:24:17.652Z,3.8
2022-08-29T18:31:26.186Z,3.9
2022-08-29T18:37:15.470Z,3.9
2022-08-29T18:43:12.407Z,4.1
2022-08-29T18:49:03.069Z,3.7
2022-08-29T18:54:57.737Z,4.2
2022-08-29T19:00:49.356Z,4.2
2022-08-29T19:06:41.693Z,3.9
2022-08-29T19:12:32.848Z,3.7
2022-08-29T19:18:24.017Z,3.8
2022-08-29T19:24:14.836Z,3.6
2022-08-29T19:30:11.291Z,3.9
2022-08-29T19:36:02.141Z,4.3
2022-08-29T19:41:54.890Z,4.2
2022-08-29T19:47:50.490Z,4.1
2022-08-29T19:53:41.636Z,3.6
2022-08-29T19:59:40.761Z,3.4
2022-08-29T20:05:35.223Z,3.5
2022-08-29T20:11:26.995Z,4.2
2022-08-29T20:17:17.939Z,3.4
2022-08-29T20:23:09.955Z,3.5
2022-08-29T20:29:01.755Z,3.7
2022-08-29T20:34:55.248Z,4.1
2022-08-29T20:40:47.164Z,3.5
2022-08-29T20:46:38.257Z,3.5
2022-08-29T20:53:41.475Z,4
2022-08-29T20:59:38.482Z,3.6
2022-08-29T21:05:33.544Z,3.9
2022-08-29T21:11:24.104Z,3.6
2022-08-29T21:17:17.258Z,3.3
2022-08-29T21:23:07.856Z,3.4
2022-08-29T21:29:01.294Z,3.4
2022-08-29T21:35:57.070Z,3.4
2022-08-29T21:41:48.520Z,3.3
2022-08-29T21:47:41.686Z,3.2
2022-08-29T21:53:41.849Z,3.7
2022-08-29T21:59:32.900Z,3.7
2022-08-29T22:05:25.652Z,3.5
2022-08-29T22:11:16.595Z,3.6
2022-08-29T22:17:07.484Z,3.4
2022-08-29T22:22:58.887Z,3.7
2022-08-29T22:28:51.033Z,3.4
2022-08-29T22:34:43.278Z,3.9
2022-08-29T22:40:34.857Z,3.7
2022-08-29T22:46:26.142Z,3.4
2022-08-29T22:52:17.760Z,3.4
2022-08-29T22:58:09.575Z,3.7
2022-08-29T23:03:59.481Z,3.5
2022-08-29T23:09:48.806Z,3.6
2022-08-29T23:15:40.596Z,3.5
2022-08-29T23:21:33.748Z,3.5
2022-08-29T23:27:25.038Z,3.8
2022-08-29T23:33:16.664Z,4.1
2022-08-29T23:39:08.407Z,3.7
2022-08-29T23:45:00.873Z,4
2022-08-29T23:50:55.188Z,3.7
2022-08-29T23:56:45.866Z,3.7
